Time;durP1;ratioP1;P1;durP2;ratioP2;P2;SDS_P1;SDS_P2;PMS_P1;PMS_P2;Temp;Humidity;BMP_temperature;BMP_pressure;BME280_temperature;BME280_humidity;BME280_pressure;Samples;Min_cycle;Max_cycle;Signal;HPM_P1;HPM_P2
2022/12/21 00:01:37;;;;;;;;;;;9.90;99.90;;;;;;5009376;28;19921;-68
2022/12/21 00:04:03;;;;;;;;;;;9.80;99.90;;;;;;5027267;28;20243;-68
2022/12/21 00:06:29;;;;;;;;;;;9.80;99.90;;;;;;5025249;28;19932;-69
2022/12/21 00:08:55;;;;;;;;;;;9.80;99.90;;;;;;5008873;28;19921;-68
2022/12/21 00:11:21;;;;;;;;;;;9.70;99.90;;;;;;5008442;28;19918;-68
2022/12/21 00:13:47;;;;;;;;;;;9.70;99.90;;;;;;5021740;28;20382;-68
2022/12/21 00:16:13;;;;;;;;;;;9.70;99.90;;;;;;5019368;28;20403;-68
2022/12/21 00:18:39;;;;;;;;;;;9.60;99.90;;;;;;5021099;28;19913;-68
2022/12/21 00:21:05;;;;;;;;;;;9.60;99.90;;;;;;5021269;28;19928;-68
2022/12/21 00:23:31;;;;;;;;;;;9.60;99.90;;;;;;5024304;28;19924;-68
2022/12/21 00:25:57;;;;;;;;;;;9.60;99.90;;;;;;5026109;28;19917;-68
2022/12/21 00:28:23;;;;;;;;;;;9.60;99.90;;;;;;5027122;28;19912;-69
2022/12/21 00:30:49;;;;;;;;;;;9.70;99.90;;;;;;5025331;28;20444;-69
2022/12/21 00:33:14;;;;;;;;;;;9.70;99.90;;;;;;5027428;28;20339;-68
2022/12/21 00:35:40;;;;;;;;;;;9.70;99.90;;;;;;5028050;28;20424;-69
2022/12/21 00:38:08;;;;;;;;;;;9.60;99.90;;;;;;5025685;28;19956;-68
2022/12/21 00:40:34;;;;;;;;;;;9.60;99.90;;;;;;5009027;28;19916;-69
2022/12/21 00:42:59;;;;;;;;;;;9.60;99.90;;;;;;5026450;28;19924;-68
2022/12/21 00:45:25;;;;;;;;;;;9.60;99.90;;;;;;5009647;28;20003;-68
2022/12/21 00:47:50;;;;;;;;;;;9.60;99.90;;;;;;5025384;28;20355;-68
2022/12/21 00:50:16;;;;;;;;;;;9.50;99.90;;;;;;5020440;28;19913;-68
2022/12/21 00:52:42;;;;;;;;;;;9.50;99.90;;;;;;5014593;28;19921;-68
2022/12/21 00:55:08;;;;;;;;;;;9.50;99.90;;;;;;5023608;28;20326;-69
2022/12/21 00:57:34;;;;;;;;;;;9.60;99.90;;;;;;5010149;28;19971;-69
2022/12/21 00:59:59;;;;;;;;;;;9.60;99.90;;;;;;5022214;28;19917;-69
2022/12/21 01:02:25;;;;;;;;;;;9.60;99.90;;;;;;5019586;28;19992;-69
2022/12/21 01:04:50;;;;;;;;;;;9.60;99.90;;;;;;5024166;28;19913;-68
2022/12/21 01:07:16;;;;;;;;;;;9.50;99.90;;;;;;5026422;28;19924;-68
2022/12/21 01:09:41;;;;;;;;;;;9.50;99.90;;;;;;5025881;28;20297;-68
2022/12/21 01:12:07;;;;;;;;;;;9.50;99.90;;;;;;5024700;28;19917;-68
2022/12/21 01:14:34;;;;;;;;;;;9.50;99.90;;;;;;5026263;28;19920;-69
2022/12/21 01:17:00;;;;;;;;;;;9.50;99.90;;;;;;5009357;28;20020;-68
2022/12/21 01:19:25;;;;;;;;;;;9.50;99.90;;;;;;5024893;28;20012;-68
2022/12/21 01:21:52;;;;;;;;;;;9.50;99.90;;;;;;5021960;28;20004;-67
2022/12/21 01:24:17;;;;;;;;;;;9.40;99.90;;;;;;5004822;28;20007;-67
2022/12/21 01:26:43;;;;;;;;;;;9.40;99.90;;;;;;5025881;28;19917;-67
2022/12/21 01:29:11;;;;;;;;;;;9.40;99.90;;;;;;5025976;28;19916;-68
2022/12/21 01:31:37;;;;;;;;;;;9.40;99.90;;;;;;5025389;28;19912;-67
2022/12/21 01:34:02;;;;;;;;;;;9.30;99.90;;;;;;5025132;28;19912;-69
2022/12/21 01:36:28;;;;;;;;;;;9.40;99.90;;;;;;5026367;28;20031;-69
2022/12/21 01:38:54;;;;;;;;;;;9.30;99.90;;;;;;5013898;28;19928;-67
2022/12/21 01:41:21;;;;;;;;;;;9.30;99.90;;;;;;5026345;28;19921;-67
2022/12/21 01:43:46;;;;;;;;;;;9.30;99.90;;;;;;5020731;28;19976;-67
2022/12/21 01:46:16;;;;;;;;;;;9.30;99.90;;;;;;5020297;28;19912;-68
2022/12/21 01:48:44;;;;;;;;;;;9.30;99.90;;;;;;5008921;28;19913;-68
2022/12/21 01:51:10;;;;;;;;;;;9.30;99.90;;;;;;5009509;28;19913;-68
2022/12/21 01:53:36;;;;;;;;;;;9.20;99.90;;;;;;5020416;28;20341;-67
2022/12/21 01:56:02;;;;;;;;;;;9.20;99.90;;;;;;5026127;28;19913;-68
2022/12/21 01:58:28;;;;;;;;;;;9.20;99.90;;;;;;5008533;28;19949;-68
2022/12/21 02:00:54;;;;;;;;;;;9.20;99.90;;;;;;5025040;28;19956;-67
2022/12/21 02:03:22;;;;;;;;;;;9.20;99.90;;;;;;5009302;28;20028;-67
2022/12/21 02:05:54;;;;;;;;;;;9.20;99.90;;;;;;5020062;28;19913;-68
2022/12/21 02:08:21;;;;;;;;;;;9.20;99.90;;;;;;4999918;28;20216;-68
2022/12/21 02:10:47;;;;;;;;;;;9.10;99.90;;;;;;5024002;28;19971;-68
2022/12/21 02:13:16;;;;;;;;;;;9.10;99.90;;;;;;5025857;28;20303;-67
2022/12/21 02:15:48;;;;;;;;;;;9.10;99.90;;;;;;5018659;28;19967;-68
2022/12/21 02:18:25;;;;;;;;;;;9.10;99.90;;;;;;5025650;28;19913;-68
2022/12/21 02:21:05;;;;;;;;;;;9.10;99.90;;;;;;5024183;28;19990;-69
2022/12/21 02:23:41;;;;;;;;;;;9.10;99.90;;;;;;5026464;28;19972;-68
2022/12/21 02:26:26;;;;;;;;;;;9.10;99.90;;;;;;5027688;28;19913;-69
2022/12/21 02:28:51;;;;;;;;;;;9.10;99.90;;;;;;5009678;28;19996;-69
2022/12/21 02:31:23;;;;;;;;;;;9.10;99.90;;;;;;5029727;28;19917;-68
2022/12/21 02:34:01;;;;;;;;;;;9.00;99.90;;;;;;5022386;28;19920;-69
2022/12/21 02:36:33;;;;;;;;;;;9.10;99.90;;;;;;5029737;28;20140;-69
2022/12/21 02:39:03;;;;;;;;;;;9.10;99.90;;;;;;5026918;28;19913;-69
2022/12/21 02:41:28;;;;;;;;;;;9.00;99.90;;;;;;5028759;28;19931;-67
2022/12/21 02:44:13;;;;;;;;;;;9.00;99.90;;;;;;5029676;28;19917;-67
2022/12/21 02:46:56;;;;;;;;;;;9.00;99.90;;;;;;5014058;28;19913;-68
2022/12/21 02:49:28;;;;;;;;;;;9.00;99.90;;;;;;5022967;28;19939;-68
2022/12/21 02:51:53;;;;;;;;;;;9.00;99.90;;;;;;5010850;28;19913;-68
2022/12/21 02:54:19;;;;;;;;;;;9.00;99.90;;;;;;5029118;28;20484;-68
2022/12/21 02:56:45;;;;;;;;;;;8.90;99.90;;;;;;5023137;28;19913;-67
2022/12/21 02:59:11;;;;;;;;;;;8.90;99.90;;;;;;5008503;28;20513;-68
2022/12/21 03:01:43;;;;;;;;;;;8.90;99.90;;;;;;5023367;28;19921;-69
2022/12/21 03:04:17;;;;;;;;;;;8.90;99.90;;;;;;5021787;28;19913;-68
2022/12/21 03:06:53;;;;;;;;;;;8.90;99.90;;;;;;5028969;28;20503;-68
2022/12/21 03:09:34;;;;;;;;;;;8.90;99.90;;;;;;5027778;28;19913;-68
2022/12/21 03:12:02;;;;;;;;;;;8.90;99.90;;;;;;5027792;28;20322;-68
2022/12/21 03:14:46;;;;;;;;;;;8.80;99.90;;;;;;5028498;28;19917;-68
2022/12/21 03:17:23;;;;;;;;;;;8.80;99.90;;;;;;5027992;28;19921;-68
2022/12/21 03:19:56;;;;;;;;;;;8.80;99.90;;;;;;5012982;28;19917;-69
2022/12/21 03:22:37;;;;;;;;;;;8.80;99.90;;;;;;5027643;28;19927;-70
2022/12/21 03:25:09;;;;;;;;;;;8.80;99.90;;;;;;5028057;28;19913;-69
2022/12/21 03:27:36;;;;;;;;;;;8.80;99.90;;;;;;5027401;28;19963;-68
2022/12/21 03:30:06;;;;;;;;;;;8.80;99.90;;;;;;4998583;28;19913;-69
2022/12/21 03:32:34;;;;;;;;;;;8.80;99.90;;;;;;5026336;28;19999;-69
2022/12/21 03:35:00;;;;;;;;;;;8.80;99.90;;;;;;5023140;28;19913;-68
2022/12/21 03:37:27;;;;;;;;;;;8.80;99.90;;;;;;5011764;28;19912;-69
2022/12/21 03:40:00;;;;;;;;;;;8.80;99.90;;;;;;5025835;28;20393;-69
2022/12/21 03:42:26;;;;;;;;;;;8.80;99.90;;;;;;5027096;28;20378;-69
2022/12/21 03:44:53;;;;;;;;;;;8.80;99.90;;;;;;5011071;28;19913;-69
2022/12/21 03:47:21;;;;;;;;;;;8.80;99.90;;;;;;5027204;28;20239;-68
2022/12/21 03:49:51;;;;;;;;;;;8.80;99.90;;;;;;5027117;28;20054;-69
2022/12/21 03:52:18;;;;;;;;;;;8.80;99.90;;;;;;5007054;28;20278;-68
2022/12/21 03:54:46;;;;;;;;;;;8.80;99.90;;;;;;5024855;28;19913;-69
2022/12/21 03:57:12;;;;;;;;;;;8.80;99.90;;;;;;5029294;28;19939;-68
2022/12/21 03:59:38;;;;;;;;;;;8.80;99.90;;;;;;5014156;28;19921;-68
2022/12/21 04:02:19;;;;;;;;;;;8.70;99.90;;;;;;5033740;28;19913;-70
2022/12/21 04:04:48;;;;;;;;;;;8.80;99.90;;;;;;5028434;28;20239;-68
2022/12/21 04:07:13;;;;;;;;;;;8.80;99.90;;;;;;5013635;28;19975;-69
2022/12/21 04:09:39;;;;;;;;;;;8.80;99.90;;;;;;5012889;28;19921;-69
2022/12/21 04:14:49;;;;;;;;;;;8.80;99.90;;;;;;5027764;28;19913;-68
2022/12/21 04:17:14;;;;;;;;;;;8.80;99.90;;;;;;5025896;28;19909;-68
2022/12/21 04:19:58;;;;;;;;;;;8.80;99.90;;;;;;5029216;28;19952;-69
2022/12/21 04:28:26;;;;;;;;;;;8.90;99.90;;;;;;5015920;28;20057;-68
2022/12/21 04:30:52;;;;;;;;;;;8.90;99.90;;;;;;5013630;28;19913;-68
2022/12/21 04:33:18;;;;;;;;;;;8.90;99.90;;;;;;5029559;28;19928;-68
2022/12/21 04:38:29;;;;;;;;;;;8.90;99.90;;;;;;5025276;28;20527;-69
2022/12/21 04:40:55;;;;;;;;;;;8.90;99.90;;;;;;5029403;28;20020;-69
2022/12/21 04:43:20;;;;;;;;;;;8.90;99.90;;;;;;5029414;28;20000;-68
2022/12/21 04:45:46;;;;;;;;;;;8.90;99.90;;;;;;5008135;28;19909;-69
2022/12/21 04:48:12;;;;;;;;;;;8.80;99.90;;;;;;5029320;28;19923;-68
2022/12/21 04:50:38;;;;;;;;;;;8.80;99.90;;;;;;5029754;28;20335;-68
2022/12/21 04:53:23;;;;;;;;;;;8.80;99.90;;;;;;5029918;28;20009;-69
2022/12/21 04:55:49;;;;;;;;;;;8.80;99.90;;;;;;5029782;28;19925;-68
2022/12/21 04:58:15;;;;;;;;;;;8.80;99.90;;;;;;5031714;28;20341;-68
2022/12/21 05:00:40;;;;;;;;;;;8.90;99.90;;;;;;5013429;28;19921;-69
2022/12/21 05:03:07;;;;;;;;;;;8.80;99.90;;;;;;5027532;28;19912;-69
2022/12/21 05:05:33;;;;;;;;;;;8.80;99.90;;;;;;5029810;28;19913;-70
2022/12/21 05:07:59;;;;;;;;;;;8.90;99.90;;;;;;5026075;28;19979;-69
2022/12/21 05:10:24;;;;;;;;;;;8.80;99.90;;;;;;5030244;28;19983;-69
2022/12/21 05:12:50;;;;;;;;;;;8.90;99.90;;;;;;5023508;28;20353;-69
2022/12/21 05:15:16;;;;;;;;;;;8.90;99.90;;;;;;5014837;28;19924;-68
2022/12/21 05:17:42;;;;;;;;;;;8.80;99.90;;;;;;5015274;28;19912;-68
2022/12/21 05:20:08;;;;;;;;;;;8.90;99.90;;;;;;5029082;28;19916;-68
2022/12/21 05:22:34;;;;;;;;;;;8.90;99.90;;;;;;5026014;28;20250;-68
2022/12/21 05:24:59;;;;;;;;;;;8.90;99.90;;;;;;5029122;28;19943;-69
2022/12/21 05:27:25;;;;;;;;;;;8.80;99.90;;;;;;5029791;28;19920;-69
2022/12/21 05:29:50;;;;;;;;;;;8.90;99.90;;;;;;5028475;28;19960;-69
2022/12/21 05:32:16;;;;;;;;;;;8.90;99.90;;;;;;5026985;28;20344;-69
2022/12/21 05:34:41;;;;;;;;;;;8.90;99.90;;;;;;5024106;28;20319;-69
2022/12/21 05:37:07;;;;;;;;;;;8.90;99.90;;;;;;5011954;28;19913;-69
2022/12/21 05:39:33;;;;;;;;;;;8.80;99.90;;;;;;5029649;28;19975;-69
2022/12/21 05:41:59;;;;;;;;;;;8.90;99.90;;;;;;5027212;28;20262;-69
2022/12/21 05:44:25;;;;;;;;;;;8.90;99.90;;;;;;5029453;28;20028;-67
2022/12/21 05:46:50;;;;;;;;;;;8.90;99.90;;;;;;5028413;28;19912;-68
2022/12/21 05:49:16;;;;;;;;;;;8.90;99.90;;;;;;5028903;28;19959;-68
2022/12/21 05:51:42;;;;;;;;;;;8.90;99.90;;;;;;5025193;28;20333;-68
2022/12/21 05:54:08;;;;;;;;;;;8.90;99.90;;;;;;5028513;28;19920;-68
2022/12/21 05:56:36;;;;;;;;;;;8.90;99.90;;;;;;5028146;28;20004;-69
2022/12/21 05:59:02;;;;;;;;;;;8.80;99.90;;;;;;5010223;28;19959;-69
2022/12/21 06:01:27;;;;;;;;;;;8.80;99.90;;;;;;5028534;28;20315;-69
2022/12/21 06:03:53;;;;;;;;;;;8.80;99.90;;;;;;5027191;28;19917;-68
2022/12/21 06:06:19;;;;;;;;;;;8.80;99.90;;;;;;5028583;28;19920;-68
2022/12/21 06:08:44;;;;;;;;;;;8.80;99.90;;;;;;5028746;28;19913;-68
2022/12/21 06:11:17;;;;;;;;;;;8.80;99.90;;;;;;5029449;28;19939;-69
2022/12/21 06:13:42;;;;;;;;;;;8.80;99.90;;;;;;5028068;28;19917;-69
2022/12/21 06:16:09;;;;;;;;;;;8.80;99.90;;;;;;5028506;28;20589;-69
2022/12/21 06:18:34;;;;;;;;;;;8.80;99.90;;;;;;5028342;28;19913;-70
2022/12/21 06:21:00;;;;;;;;;;;8.90;99.90;;;;;;5028423;28;20307;-69
2022/12/21 06:23:26;;;;;;;;;;;8.90;99.90;;;;;;5025069;28;20224;-69
2022/12/21 06:25:56;;;;;;;;;;;8.90;99.90;;;;;;5028591;28;19920;-69
2022/12/21 06:31:42;;;;;;;;;;;8.80;99.90;;;;;;5015945;28;19913;-69
2022/12/21 06:34:13;;;;;;;;;;;8.90;99.90;;;;;;5011473;28;20015;-69
2022/12/21 06:39:49;;;;;;;;;;;8.90;99.90;;;;;;5014340;28;20011;-70
2022/12/21 06:42:23;;;;;;;;;;;8.90;99.90;;;;;;5027344;28;20359;-70
2022/12/21 06:45:02;;;;;;;;;;;8.90;99.90;;;;;;5010312;28;19979;-69
2022/12/21 06:47:33;;;;;;;;;;;8.90;99.90;;;;;;5012448;28;19995;-68
2022/12/21 06:50:00;;;;;;;;;;;8.90;99.90;;;;;;5006858;28;20012;-68
2022/12/21 06:52:34;;;;;;;;;;;8.90;99.90;;;;;;5005837;28;19914;-68
2022/12/21 06:55:00;;;;;;;;;;;8.90;99.90;;;;;;5001257;28;19913;-68
2022/12/21 06:57:31;;;;;;;;;;;8.90;99.90;;;;;;5002661;28;20473;-67
2022/12/21 06:59:57;;;;;;;;;;;8.90;99.90;;;;;;5011789;28;19913;-68
2022/12/21 07:02:23;;;;;;;;;;;8.90;99.90;;;;;;5024455;28;19968;-68
2022/12/21 07:04:52;;;;;;;;;;;8.90;99.90;;;;;;5028072;28;20387;-69
2022/12/21 07:07:18;;;;;;;;;;;8.90;99.90;;;;;;4994959;28;20000;-68
2022/12/21 07:09:43;;;;;;;;;;;8.90;99.90;;;;;;5012802;28;20671;-69
2022/12/21 07:12:09;;;;;;;;;;;9.00;99.90;;;;;;5031641;28;19909;-69
2022/12/21 07:14:35;;;;;;;;;;;8.90;99.90;;;;;;5029863;28;20255;-68
2022/12/21 07:17:01;;;;;;;;;;;8.90;99.90;;;;;;5031675;28;20319;-69
2022/12/21 07:19:26;;;;;;;;;;;8.90;99.90;;;;;;5027516;28;19960;-69
2022/12/21 07:21:52;;;;;;;;;;;8.90;99.90;;;;;;5030050;28;19972;-69
2022/12/21 07:24:18;;;;;;;;;;;8.90;99.90;;;;;;5031561;28;19917;-68
2022/12/21 07:26:44;;;;;;;;;;;8.90;99.90;;;;;;5030624;28;19914;-68
2022/12/21 07:29:10;;;;;;;;;;;9.00;99.90;;;;;;5032866;28;19916;-68
2022/12/21 07:31:35;;;;;;;;;;;8.90;99.90;;;;;;5025871;28;20345;-67
2022/12/21 07:34:01;;;;;;;;;;;9.00;99.90;;;;;;5028022;28;19913;-68
2022/12/21 07:36:27;;;;;;;;;;;9.00;99.90;;;;;;5030275;28;19917;-68
2022/12/21 07:38:53;;;;;;;;;;;9.00;99.90;;;;;;5031956;28;19931;-69
2022/12/21 07:41:19;;;;;;;;;;;9.00;99.90;;;;;;5012272;28;20007;-69
2022/12/21 07:43:45;;;;;;;;;;;9.00;99.90;;;;;;5030801;28;20012;-69
2022/12/21 07:46:10;;;;;;;;;;;9.00;99.90;;;;;;5031695;28;19923;-67
2022/12/21 07:48:36;;;;;;;;;;;9.00;99.90;;;;;;5025729;28;19978;-68
2022/12/21 07:51:07;;;;;;;;;;;9.00;99.90;;;;;;5030551;28;19924;-68
2022/12/21 07:53:33;;;;;;;;;;;9.00;99.90;;;;;;5013733;28;19912;-68
2022/12/21 07:55:59;;;;;;;;;;;9.10;99.90;;;;;;5029680;28;20246;-68
2022/12/21 07:58:26;;;;;;;;;;;9.00;99.90;;;;;;5031715;28;19979;-68
2022/12/21 08:00:51;;;;;;;;;;;9.10;99.90;;;;;;5030815;28;20327;-68
2022/12/21 08:03:19;;;;;;;;;;;9.10;99.90;;;;;;5031016;28;19913;-68
2022/12/21 08:05:44;;;;;;;;;;;9.10;99.90;;;;;;5029938;28;19909;-67
2022/12/21 08:08:10;;;;;;;;;;;9.00;99.90;;;;;;5030568;28;19913;-69
2022/12/21 08:10:35;;;;;;;;;;;9.00;99.90;;;;;;5013852;28;20004;-68
2022/12/21 08:13:01;;;;;;;;;;;9.10;99.90;;;;;;5006148;28;19914;-69
2022/12/21 08:15:27;;;;;;;;;;;9.10;99.90;;;;;;5029211;28;19940;-69
2022/12/21 08:17:53;;;;;;;;;;;9.00;99.90;;;;;;5031327;28;19963;-68
2022/12/21 08:20:19;;;;;;;;;;;9.10;99.90;;;;;;5027019;28;19932;-68
2022/12/21 08:22:45;;;;;;;;;;;9.10;99.90;;;;;;5030221;28;20293;-67
2022/12/21 08:25:11;;;;;;;;;;;9.10;99.90;;;;;;5013655;28;19913;-68
2022/12/21 08:27:37;;;;;;;;;;;9.10;99.90;;;;;;5020450;28;19921;-69
2022/12/21 08:30:03;;;;;;;;;;;9.10;99.90;;;;;;5028396;28;19913;-67
2022/12/21 08:32:31;;;;;;;;;;;9.20;99.90;;;;;;5029761;28;19944;-68
2022/12/21 08:35:04;;;;;;;;;;;9.20;99.90;;;;;;5028608;28;19979;-68
2022/12/21 08:37:30;;;;;;;;;;;9.20;99.90;;;;;;5030222;28;20254;-69
2022/12/21 08:39:55;;;;;;;;;;;9.20;99.90;;;;;;5030161;28;19913;-68
2022/12/21 08:42:21;;;;;;;;;;;9.20;99.90;;;;;;5011896;28;19924;-69
2022/12/21 08:45:01;;;;;;;;;;;9.20;99.90;;;;;;5029488;28;19920;-69
2022/12/21 08:47:27;;;;;;;;;;;9.20;99.90;;;;;;4998617;28;19924;-68
2022/12/21 08:49:53;;;;;;;;;;;9.20;99.90;;;;;;5028260;28;19913;-68
2022/12/21 08:52:18;;;;;;;;;;;9.20;99.90;;;;;;5030161;28;20309;-68
2022/12/21 08:54:44;;;;;;;;;;;9.20;99.90;;;;;;5029597;28;19913;-68
2022/12/21 08:57:09;;;;;;;;;;;9.30;99.90;;;;;;5030625;28;20031;-68
2022/12/21 08:59:35;;;;;;;;;;;9.30;99.90;;;;;;5023179;28;19996;-69
2022/12/21 09:02:02;;;;;;;;;;;9.30;99.90;;;;;;5031009;28;19913;-69
2022/12/21 09:04:27;;;;;;;;;;;9.30;99.90;;;;;;5025831;28;19919;-69
2022/12/21 09:06:53;;;;;;;;;;;9.30;99.90;;;;;;4996246;28;19921;-69
2022/12/21 09:09:19;;;;;;;;;;;9.30;99.90;;;;;;5012522;28;19995;-69
2022/12/21 09:11:44;;;;;;;;;;;9.30;99.90;;;;;;5023922;28;19913;-69
2022/12/21 09:14:10;;;;;;;;;;;9.30;99.90;;;;;;5028633;28;19952;-71
2022/12/21 09:16:35;;;;;;;;;;;9.30;99.90;;;;;;5028538;28;19949;-71
2022/12/21 09:19:01;;;;;;;;;;;9.20;99.90;;;;;;5024667;28;20601;-69
2022/12/21 09:21:27;;;;;;;;;;;9.20;99.90;;;;;;5019671;28;20247;-71
2022/12/21 09:23:52;;;;;;;;;;;9.20;99.90;;;;;;5029216;28;19956;-71
2022/12/21 09:26:18;;;;;;;;;;;9.20;99.90;;;;;;5028986;28;19912;-70
2022/12/21 09:28:44;;;;;;;;;;;9.10;99.90;;;;;;5011569;28;19963;-69
2022/12/21 09:31:10;;;;;;;;;;;9.10;99.90;;;;;;5029191;28;19940;-68
2022/12/21 09:33:37;;;;;;;;;;;9.10;99.90;;;;;;5027634;28;19914;-67
2022/12/21 09:36:02;;;;;;;;;;;9.10;99.90;;;;;;5021357;28;20467;-68
2022/12/21 09:38:28;;;;;;;;;;;9.10;99.90;;;;;;5025494;28;19941;-71
2022/12/21 09:40:59;;;;;;;;;;;9.20;99.90;;;;;;5028320;28;19917;-68
2022/12/21 09:43:40;;;;;;;;;;;9.20;99.90;;;;;;5029157;28;20599;-69
2022/12/21 09:46:07;;;;;;;;;;;9.30;99.90;;;;;;5027870;28;19931;-67
2022/12/21 09:48:53;;;;;;;;;;;9.30;99.90;;;;;;5011222;28;19913;-68
2022/12/21 09:51:21;;;;;;;;;;;9.30;99.90;;;;;;5022787;28;19927;-67
2022/12/21 09:54:02;;;;;;;;;;;9.30;99.90;;;;;;5012176;28;19909;-69
2022/12/21 09:56:28;;;;;;;;;;;9.30;99.90;;;;;;5025154;28;20291;-69
2022/12/21 09:58:54;;;;;;;;;;;9.30;99.90;;;;;;5011784;28;20319;-68
2022/12/21 10:01:26;;;;;;;;;;;9.30;99.90;;;;;;5010474;28;20288;-69
2022/12/21 10:03:55;;;;;;;;;;;9.40;99.90;;;;;;5026599;28;19913;-69
2022/12/21 10:06:21;;;;;;;;;;;9.40;99.90;;;;;;5011652;28;19916;-68
2022/12/21 10:08:49;;;;;;;;;;;9.40;99.90;;;;;;5028921;28;20246;-68
2022/12/21 10:11:15;;;;;;;;;;;9.40;99.90;;;;;;5021565;28;19921;-68
2022/12/21 10:13:43;;;;;;;;;;;9.40;99.90;;;;;;5027224;28;20353;-68
2022/12/21 10:16:14;;;;;;;;;;;9.40;99.90;;;;;;5026657;28;19920;-68
2022/12/21 10:18:42;;;;;;;;;;;9.50;99.90;;;;;;5028991;28;20376;-68
2022/12/21 10:21:23;;;;;;;;;;;9.50;99.90;;;;;;5025496;28;19947;-66
2022/12/21 10:23:49;;;;;;;;;;;9.50;99.90;;;;;;5023261;28;20383;-70
2022/12/21 10:26:16;;;;;;;;;;;9.60;99.90;;;;;;5029045;28;19913;-69
2022/12/21 10:28:42;;;;;;;;;;;9.60;99.90;;;;;;5010877;28;19952;-72
2022/12/21 10:31:08;;;;;;;;;;;9.60;99.90;;;;;;5011073;28;19967;-71
2022/12/21 10:33:40;;;;;;;;;;;9.60;99.90;;;;;;5011239;28;19917;-71
2022/12/21 10:36:06;;;;;;;;;;;9.60;99.90;;;;;;5011456;28;19912;-73
2022/12/21 10:38:33;;;;;;;;;;;9.60;99.90;;;;;;5018121;28;19924;-74
2022/12/21 10:40:58;;;;;;;;;;;9.60;99.90;;;;;;5013119;28;20377;-78
2022/12/21 10:43:24;;;;;;;;;;;9.60;99.90;;;;;;5054609;28;19916;-74
2022/12/21 10:45:50;;;;;;;;;;;9.60;99.90;;;;;;5035235;28;19917;-73
2022/12/21 10:48:15;;;;;;;;;;;9.60;99.90;;;;;;5034784;28;19909;-73
2022/12/21 10:50:42;;;;;;;;;;;9.60;99.90;;;;;;5019565;28;19920;-73
2022/12/21 10:53:25;;;;;;;;;;;9.60;99.90;;;;;;5038830;28;19912;-74
2022/12/21 10:55:54;;;;;;;;;;;9.60;99.90;;;;;;5022021;28;20338;-74
2022/12/21 10:58:21;;;;;;;;;;;9.60;99.90;;;;;;5001280;28;19916;-74
2022/12/21 11:01:06;;;;;;;;;;;9.60;99.90;;;;;;5022687;28;19962;-76
2022/12/21 11:03:34;;;;;;;;;;;9.60;99.90;;;;;;5019577;28;19912;-75
2022/12/21 11:06:16;;;;;;;;;;;9.70;99.90;;;;;;5037420;28;19912;-75
2022/12/21 11:08:45;;;;;;;;;;;9.70;99.90;;;;;;5020829;28;19913;-76
2022/12/21 11:11:26;;;;;;;;;;;9.70;99.90;;;;;;5002700;28;20208;-75
2022/12/21 11:13:59;;;;;;;;;;;9.80;99.90;;;;;;5050501;28;19913;-79
2022/12/21 11:16:26;;;;;;;;;;;9.80;99.90;;;;;;5030948;28;19956;-79
2022/12/21 11:18:52;;;;;;;;;;;9.80;99.90;;;;;;5035703;28;19922;-79
2022/12/21 11:21:33;;;;;;;;;;;9.80;99.90;;;;;;5032383;28;19916;-73
2022/12/21 11:23:59;;;;;;;;;;;9.80;99.90;;;;;;5050673;28;20377;-74
2022/12/21 11:26:26;;;;;;;;;;;9.70;99.90;;;;;;5005456;28;19912;-74
2022/12/21 11:28:58;;;;;;;;;;;9.70;99.90;;;;;;5019810;28;19909;-75
2022/12/21 11:31:25;;;;;;;;;;;9.70;99.90;;;;;;5020887;28;19912;-74
2022/12/21 11:33:51;;;;;;;;;;;9.70;99.90;;;;;;5018672;28;20397;-75
2022/12/21 11:36:17;;;;;;;;;;;9.70;99.90;;;;;;5017316;28;19945;-71
2022/12/21 11:38:43;;;;;;;;;;;9.70;99.90;;;;;;4999609;28;20300;-72
2022/12/21 11:41:20;;;;;;;;;;;9.80;99.90;;;;;;5034725;28;20341;-69
2022/12/21 11:43:46;;;;;;;;;;;9.70;99.90;;;;;;5066923;28;19922;-68
2022/12/21 11:46:15;;;;;;;;;;;9.70;99.90;;;;;;5066472;28;19912;-68
2022/12/21 11:48:57;;;;;;;;;;;9.60;99.90;;;;;;5040883;28;19916;-69
2022/12/21 11:51:23;;;;;;;;;;;9.60;99.90;;;;;;5035280;28;20293;-68
2022/12/21 11:53:54;;;;;;;;;;;9.60;99.90;;;;;;5070370;28;19912;-68
2022/12/21 11:56:36;;;;;;;;;;;9.60;99.90;;;;;;5056469;28;19995;-68
2022/12/21 11:59:02;;;;;;;;;;;9.60;99.90;;;;;;5054128;28;19907;-69
2022/12/21 12:01:31;;;;;;;;;;;9.60;99.90;;;;;;5077477;28;19920;-69
2022/12/21 12:04:01;;;;;;;;;;;9.60;99.90;;;;;;5059293;28;20352;-69
2022/12/21 12:06:39;;;;;;;;;;;9.50;99.90;;;;;;5040772;28;20218;-69
2022/12/21 12:09:24;;;;;;;;;;;9.50;99.90;;;;;;5071392;28;19912;-68
2022/12/21 12:12:08;;;;;;;;;;;9.60;99.90;;;;;;5040293;28;19920;-82
2022/12/21 12:14:43;;;;;;;;;;;9.60;99.90;;;;;;5064428;28;19912;-76
2022/12/21 12:17:35;;;;;;;;;;;9.60;99.90;;;;;;5087258;28;20352;-73
2022/12/21 12:20:08;;;;;;;;;;;9.60;99.90;;;;;;5045699;28;20456;-75
2022/12/21 12:22:37;;;;;;;;;;;9.70;99.90;;;;;;5056533;28;19966;-77
2022/12/21 12:25:07;;;;;;;;;;;9.70;99.90;;;;;;5074035;28;19964;-76
2022/12/21 12:27:33;;;;;;;;;;;9.70;99.90;;;;;;5061960;28;19991;-73
2022/12/21 12:30:03;;;;;;;;;;;9.70;99.90;;;;;;5059321;28;20019;-71
2022/12/21 12:32:32;;;;;;;;;;;9.70;99.90;;;;;;5020729;28;20352;-72
2022/12/21 12:35:04;;;;;;;;;;;9.70;99.90;;;;;;5059332;28;19926;-73
2022/12/21 12:37:34;;;;;;;;;;;9.70;99.90;;;;;;5058502;28;19930;-70
2022/12/21 12:40:02;;;;;;;;;;;9.70;99.90;;;;;;5046887;28;20321;-68
2022/12/21 12:42:32;;;;;;;;;;;9.70;99.90;;;;;;5062366;28;19970;-70
2022/12/21 12:45:33;;;;;;;;;;;9.70;99.90;;;;;;5037154;28;19995;-71
2022/12/21 12:48:04;;;;;;;;;;;9.70;99.90;;;;;;4987829;28;20093;-69
2022/12/21 12:50:37;;;;;;;;;;;9.70;99.90;;;;;;5032167;28;20009;-69
2022/12/21 12:53:16;;;;;;;;;;;9.70;99.90;;;;;;5059193;28;19916;-69
2022/12/21 12:56:14;;;;;;;;;;;9.80;99.90;;;;;;5053359;28;19944;-69
2022/12/21 12:58:53;;;;;;;;;;;9.80;99.90;;;;;;5007195;28;19912;-68
2022/12/21 13:01:25;;;;;;;;;;;9.90;99.90;;;;;;5053172;28;19969;-69
2022/12/21 13:03:58;;;;;;;;;;;9.90;99.90;;;;;;5075734;28;19912;-68
2022/12/21 13:06:27;;;;;;;;;;;9.90;99.90;;;;;;5062097;28;19988;-68
2022/12/21 13:09:12;;;;;;;;;;;10.00;99.90;;;;;;5050437;28;20328;-69
2022/12/21 13:11:44;;;;;;;;;;;9.90;99.90;;;;;;5033809;28;19930;-68
2022/12/21 13:14:13;;;;;;;;;;;10.00;99.90;;;;;;5072134;28;19912;-68
2022/12/21 13:16:38;;;;;;;;;;;10.00;99.90;;;;;;5051415;28;20211;-67
2022/12/21 13:19:04;;;;;;;;;;;10.00;99.90;;;;;;5077239;28;19919;-69
2022/12/21 13:21:31;;;;;;;;;;;10.20;99.90;;;;;;5034112;28;19927;-69
2022/12/21 13:24:02;;;;;;;;;;;10.40;99.90;;;;;;5036236;28;19912;-69
2022/12/21 13:26:45;;;;;;;;;;;10.60;99.90;;;;;;5046269;28;20447;-70
2022/12/21 13:29:18;;;;;;;;;;;10.60;99.90;;;;;;5053709;28;19912;-69
2022/12/21 13:32:03;;;;;;;;;;;10.70;99.90;;;;;;5050891;28;20393;-70
2022/12/21 13:34:49;;;;;;;;;;;10.60;99.90;;;;;;5067217;28;19915;-69
2022/12/21 13:37:19;;;;;;;;;;;10.50;99.90;;;;;;5028735;28;20310;-68
2022/12/21 13:39:45;;;;;;;;;;;10.40;99.90;;;;;;5035830;28;19912;-69
2022/12/21 13:42:12;;;;;;;;;;;10.30;99.90;;;;;;5048722;28;19920;-69
2022/12/21 13:44:43;;;;;;;;;;;10.20;99.90;;;;;;5058422;28;19912;-70
2022/12/21 13:47:09;;;;;;;;;;;10.20;99.90;;;;;;5052040;28;19920;-68
2022/12/21 13:49:35;;;;;;;;;;;10.20;99.90;;;;;;5037827;28;19913;-69
2022/12/21 13:52:39;;;;;;;;;;;10.20;99.90;;;;;;5063455;28;20289;-68
2022/12/21 13:55:05;;;;;;;;;;;10.40;99.90;;;;;;4990228;28;20366;-69
2022/12/21 13:57:32;;;;;;;;;;;10.40;99.90;;;;;;4984763;28;20000;-69
2022/12/21 14:00:20;;;;;;;;;;;10.30;99.90;;;;;;4993318;28;19923;-69
2022/12/21 14:02:57;;;;;;;;;;;10.30;99.90;;;;;;5036514;28;20605;-68
2022/12/21 14:05:24;;;;;;;;;;;10.20;99.90;;;;;;5074918;28;19912;-69
2022/12/21 14:08:08;;;;;;;;;;;10.20;99.90;;;;;;5069894;28;20054;-68
2022/12/21 14:10:44;;;;;;;;;;;10.10;99.90;;;;;;5035532;28;19912;-67
2022/12/21 14:13:19;;;;;;;;;;;10.10;99.90;;;;;;5035346;28;20256;-67
2022/12/21 14:15:50;;;;;;;;;;;10.10;99.90;;;;;;5068251;28;19947;-68
2022/12/21 14:18:17;;;;;;;;;;;10.10;99.90;;;;;;5051402;28;19912;-70
2022/12/21 14:20:42;;;;;;;;;;;10.00;99.90;;;;;;5050956;28;19959;-69
2022/12/21 14:23:34;;;;;;;;;;;10.00;99.90;;;;;;5045908;28;19916;-70
2022/12/21 14:26:00;;;;;;;;;;;10.00;99.90;;;;;;5062138;28;19908;-68
2022/12/21 14:28:29;;;;;;;;;;;10.00;99.90;;;;;;5054206;28;19911;-69
2022/12/21 14:31:03;;;;;;;;;;;10.00;99.90;;;;;;5025313;28;19977;-68
2022/12/21 14:33:45;;;;;;;;;;;10.00;99.90;;;;;;5063510;28;19919;-69
2022/12/21 14:36:13;;;;;;;;;;;9.90;99.90;;;;;;5042499;28;19908;-68
2022/12/21 14:38:39;;;;;;;;;;;9.80;99.90;;;;;;5069525;28;20383;-68
2022/12/21 14:41:08;;;;;;;;;;;9.80;99.90;;;;;;5034887;28;19916;-68
2022/12/21 14:43:52;;;;;;;;;;;9.90;99.90;;;;;;5082561;28;20376;-69
2022/12/21 14:46:25;;;;;;;;;;;9.90;99.90;;;;;;5047901;28;19974;-68
2022/12/21 14:48:52;;;;;;;;;;;9.90;99.90;;;;;;5068633;28;19942;-69
2022/12/21 14:51:53;;;;;;;;;;;9.90;99.90;;;;;;5035063;28;19912;-68
2022/12/21 14:54:21;;;;;;;;;;;9.80;99.90;;;;;;5019183;28;20446;-69
2022/12/21 14:57:07;;;;;;;;;;;9.90;99.90;;;;;;5031195;28;20525;-68
2022/12/21 14:59:37;;;;;;;;;;;9.80;99.90;;;;;;5072031;28;19986;-67